Time;durP1;ratioP1;P1;durP2;ratioP2;P2;SDS_P1;SDS_P2;PMS_P1;PMS_P2;Temp;Humidity;BMP_temperature;BMP_pressure;BME280_temperature;BME280_humidity;BME280_pressure;Samples;Min_cycle;Max_cycle;Signal;HPM_P1;HPM_P2
2023/12/28 00:00:26;;;;;;;15.27;4.75;;;;;;;3.57;100.00;95428.97;5078956;28;20319;-83
2023/12/28 00:02:51;;;;;;;9.05;4.30;;;;;;;3.53;100.00;95426.00;5087340;28;20028;-83
2023/12/28 00:05:17;;;;;;;10.55;4.00;;;;;;;3.58;100.00;95430.56;5095421;28;20024;-83
2023/12/28 00:07:42;;;;;;;12.38;3.40;;;;;;;3.72;100.00;95428.81;5095572;28;20329;-83
2023/12/28 00:10:08;;;;;;;8.95;3.28;;;;;;;3.38;100.00;95420.97;5078771;28;20034;-83
2023/12/28 00:12:33;;;;;;;5.97;3.25;;;;;;;3.19;100.00;95428.50;5094995;28;20438;-83
2023/12/28 00:14:59;;;;;;;6.30;3.53;;;;;;;3.25;100.00;95425.13;5081120;28;20028;-83
2023/12/28 00:17:24;;;;;;;10.38;3.30;;;;;;;3.27;100.00;95421.53;5075321;28;20025;-83
2023/12/28 00:19:49;;;;;;;8.52;3.40;;;;;;;3.53;100.00;95426.78;5076298;28;20020;-83
2023/12/28 00:22:15;;;;;;;7.32;3.30;;;;;;;3.66;100.00;95423.44;5076216;28;20028;-83
2023/12/28 00:24:40;;;;;;;9.00;3.85;;;;;;;3.40;100.00;95424.16;5066823;28;20490;-83
2023/12/28 00:27:06;;;;;;;9.10;3.30;;;;;;;3.18;100.00;95426.09;5074945;28;20032;-83
2023/12/28 00:29:32;;;;;;;8.23;3.13;;;;;;;3.40;100.00;95426.75;5075018;28;20035;-83
2023/12/28 00:31:57;;;;;;;9.15;3.33;;;;;;;3.30;100.00;95426.31;5058587;28;20113;-83
2023/12/28 00:34:23;;;;;;;8.93;3.50;;;;;;;3.51;100.00;95425.38;5084463;28;20062;-83
2023/12/28 00:36:48;;;;;;;11.95;3.92;;;;;;;3.41;100.00;95423.16;5078086;28;20032;-83
2023/12/28 00:39:15;;;;;;;7.50;3.33;;;;;;;3.21;100.00;95417.94;5078508;28;20318;-83
2023/12/28 00:41:40;;;;;;;6.80;3.40;;;;;;;3.44;100.00;95429.75;5078619;28;20032;-83
2023/12/28 00:44:09;;;;;;;11.70;4.13;;;;;;;3.43;100.00;95423.75;5094234;28;20073;-83
2023/12/28 00:46:35;;;;;;;10.75;3.42;;;;;;;3.48;100.00;95424.00;5095056;28;20035;-83
2023/12/28 00:49:00;;;;;;;6.88;3.30;;;;;;;3.59;100.00;95419.25;5095008;28;20028;-82
2023/12/28 00:51:25;;;;;;;9.32;3.83;;;;;;;3.46;100.00;95415.63;5095049;28;20130;-83
2023/12/28 00:53:51;;;;;;;6.03;3.35;;;;;;;3.16;100.00;95412.53;5094997;28;20031;-83
2023/12/28 00:56:16;;;;;;;8.98;4.03;;;;;;;3.01;100.00;95410.91;5076243;28;20024;-83
2023/12/28 00:58:43;;;;;;;8.38;3.10;;;;;;;3.28;100.00;95410.19;5057764;28;20434;-83
2023/12/28 01:01:09;;;;;;;8.55;4.00;;;;;;;3.44;100.00;95417.59;5058386;28;20400;-83
2023/12/28 01:03:35;;;;;;;6.57;3.30;;;;;;;3.45;100.00;95426.16;5076116;28;20027;-83
2023/12/28 01:06:00;;;;;;;12.38;3.97;;;;;;;3.47;100.00;95417.22;5081304;28;20107;-83
2023/12/28 01:08:26;;;;;;;12.05;3.67;;;;;;;3.30;100.00;95421.13;5057908;28;20071;-83
2023/12/28 01:10:51;;;;;;;10.13;4.18;;;;;;;3.37;100.00;95422.78;5077756;28;20028;-83
2023/12/28 01:13:17;;;;;;;9.35;3.60;;;;;;;3.45;100.00;95423.59;5078144;28;20028;-83
2023/12/28 01:15:42;;;;;;;8.02;3.63;;;;;;;3.43;100.00;95422.97;5065725;28;20345;-83
2023/12/28 01:18:08;;;;;;;7.07;3.40;;;;;;;3.48;100.00;95424.00;5087396;28;20028;-83
2023/12/28 01:20:34;;;;;;;7.38;3.72;;;;;;;3.59;100.00;95420.03;5086177;28;20043;-83
2023/12/28 01:23:00;;;;;;;5.13;3.10;;;;;;;3.51;100.00;95427.97;5089199;28;20025;-83
2023/12/28 01:25:25;;;;;;;13.20;3.75;;;;;;;3.16;100.00;95420.31;5072054;28;20114;-83
2023/12/28 01:27:51;;;;;;;7.65;3.40;;;;;;;2.97;100.00;95418.25;5087765;28;20051;-83
2023/12/28 01:30:16;;;;;;;8.45;4.13;;;;;;;2.91;100.00;95413.84;5088208;28;20323;-83
2023/12/28 01:32:42;;;;;;;6.00;3.78;;;;;;;3.32;100.00;95414.00;5086198;28;20033;-83
2023/12/28 01:35:08;;;;;;;10.60;3.90;;;;;;;3.42;100.00;95423.97;5093992;28;20040;-83
2023/12/28 01:37:33;;;;;;;8.80;3.47;;;;;;;3.35;100.00;95416.97;5093275;28;20083;-83
2023/12/28 01:40:00;;;;;;;6.90;3.78;;;;;;;3.42;100.00;95414.41;5097849;28;20028;-83
2023/12/28 01:42:26;;;;;;;4.93;2.92;;;;;;;3.33;100.00;95416.38;5097928;28;20038;-83
2023/12/28 01:44:51;;;;;;;7.57;3.30;;;;;;;3.09;100.00;95423.69;5097764;28;20024;-83
2023/12/28 01:47:17;;;;;;;7.43;3.58;;;;;;;2.84;100.00;95423.38;5079408;28;20032;-83
2023/12/28 01:49:43;;;;;;;6.03;3.35;;;;;;;2.73;100.00;95422.13;5077508;28;20505;-83
2023/12/28 01:52:08;;;;;;;8.13;3.55;;;;;;;2.76;100.00;95420.94;5078469;28;20334;-83
2023/12/28 01:54:34;;;;;;;13.07;4.30;;;;;;;2.92;100.00;95423.22;5077334;28;20029;-83
2023/12/28 01:57:00;;;;;;;8.95;4.10;;;;;;;2.88;100.00;95419.41;5072376;28;20031;-83
2023/12/28 01:59:26;;;;;;;9.90;3.90;;;;;;;3.16;100.00;95426.31;5097607;28;20498;-83
2023/12/28 02:01:51;;;;;;;7.25;3.35;;;;;;;3.35;100.00;95427.34;5097464;28;20028;-83
2023/12/28 02:04:17;;;;;;;8.15;3.22;;;;;;;3.13;100.00;95424.06;5097485;28;20030;-83
2023/12/28 02:06:42;;;;;;;7.03;3.92;;;;;;;2.91;100.00;95421.63;5096673;28;20345;-83
2023/12/28 02:09:08;;;;;;;7.80;4.22;;;;;;;2.87;100.00;95420.41;5079151;28;20036;-83
2023/12/28 02:11:33;;;;;;;11.35;4.30;;;;;;;3.00;100.00;95421.44;5077203;28;20029;-83
2023/12/28 02:13:59;;;;;;;8.48;4.07;;;;;;;3.18;100.00;95423.50;5094979;28;20034;-83
2023/12/28 02:17:00;;;;;;;8.27;3.40;;;;;;;3.22;100.00;95427.28;5078340;28;20418;-83
2023/12/28 02:19:40;;;;;;;6.25;3.85;;;;;;;3.33;100.00;95426.75;5087643;28;20518;-83
2023/12/28 02:22:07;;;;;;;8.23;4.15;;;;;;;3.05;100.00;95419.09;5097085;28;20353;-83
2023/12/28 02:25:06;;;;;;;12.23;4.13;;;;;;;2.98;100.00;95411.28;5097077;28;20024;-83
2023/12/28 02:27:34;;;;;;;12.15;5.18;;;;;;;2.93;100.00;95417.03;5098121;28;20031;-83
2023/12/28 02:29:59;;;;;;;13.68;5.45;;;;;;;3.19;100.00;95419.91;5096901;28;20340;-83
2023/12/28 02:32:38;;;;;;;15.63;5.22;;;;;;;3.35;100.00;95409.19;5098463;28;20055;-83
2023/12/28 02:35:12;;;;;;;10.23;4.90;;;;;;;3.18;100.00;95407.97;5079977;28;20028;-83
2023/12/28 02:37:37;;;;;;;10.02;4.03;;;;;;;3.08;100.00;95408.34;5096741;28;20127;-83
2023/12/28 02:40:03;;;;;;;8.07;3.78;;;;;;;3.17;100.00;95414.13;5097249;28;20115;-83
2023/12/28 02:42:29;;;;;;;10.30;3.05;;;;;;;3.12;100.00;95401.75;5079741;28;20035;-83
2023/12/28 02:44:54;;;;;;;6.72;3.78;;;;;;;3.00;100.00;95403.31;5097910;28;20354;-83
2023/12/28 02:47:20;;;;;;;6.32;3.10;;;;;;;3.11;100.00;95400.16;5097617;28;20040;-83
2023/12/28 02:49:45;;;;;;;8.52;3.38;;;;;;;3.17;100.00;95399.41;5096505;28;20036;-83
2023/12/28 02:52:10;;;;;;;6.40;3.30;;;;;;;3.07;100.00;95393.78;5097729;28;20032;-83
2023/12/28 02:54:36;;;;;;;8.15;2.95;;;;;;;3.24;100.00;95399.44;5097606;28;20036;-83
2023/12/28 02:57:01;;;;;;;4.85;2.97;;;;;;;3.24;100.00;95397.63;5096299;28;20039;-83
2023/12/28 02:59:27;;;;;;;5.25;3.25;;;;;;;3.18;100.00;95390.66;5097609;28;20036;-83
2023/12/28 03:01:52;;;;;;;8.00;3.58;;;;;;;3.21;100.00;95389.44;5096436;28;20028;-83
2023/12/28 03:04:17;;;;;;;7.18;3.40;;;;;;;3.29;100.00;95384.09;5096416;28;20028;-83
2023/12/28 03:06:46;;;;;;;8.75;3.20;;;;;;;3.24;100.00;95381.31;5097410;28;20341;-83
2023/12/28 03:09:11;;;;;;;5.47;2.97;;;;;;;3.17;100.00;95388.25;5096248;28;20028;-83
2023/12/28 03:11:37;;;;;;;6.55;3.30;;;;;;;3.20;100.00;95385.25;5096154;28;20063;-83
2023/12/28 03:14:02;;;;;;;4.68;3.15;;;;;;;3.07;100.00;95371.28;5096078;28;20042;-83
2023/12/28 03:16:27;;;;;;;6.55;3.00;;;;;;;2.88;100.00;95370.25;5096248;28;20040;-83
2023/12/28 03:18:53;;;;;;;12.70;3.60;;;;;;;2.72;100.00;95373.13;5097205;28;20038;-83
2023/12/28 03:21:18;;;;;;;8.02;3.47;;;;;;;2.72;100.00;95373.94;5078982;28;20032;-83
2023/12/28 03:23:44;;;;;;;5.97;3.60;;;;;;;2.86;100.00;95384.34;5096352;28;20031;-83
2023/12/28 03:26:09;;;;;;;7.75;4.20;;;;;;;2.99;100.00;95383.59;5075662;28;20445;-83
2023/12/28 03:28:35;;;;;;;11.38;5.28;;;;;;;2.85;100.00;95375.78;5075432;28;20028;-83
2023/12/28 03:31:03;;;;;;;13.52;5.03;;;;;;;2.88;100.00;95369.44;5075786;28;20377;-83
2023/12/28 03:33:28;;;;;;;13.57;5.65;;;;;;;2.86;100.00;95371.41;5076128;28;20024;-83
2023/12/28 03:35:54;;;;;;;8.73;4.03;;;;;;;3.03;100.00;95374.47;5075575;28;20449;-83
2023/12/28 03:38:19;;;;;;;9.57;3.95;;;;;;;3.15;100.00;95375.47;5075526;28;20027;-83
2023/12/28 03:40:47;;;;;;;9.95;3.92;;;;;;;2.95;100.00;95372.84;5075497;28;20028;-83
2023/12/28 03:43:13;;;;;;;9.45;4.90;;;;;;;2.69;100.00;95372.53;5075425;28;20384;-83
2023/12/28 03:45:38;;;;;;;10.55;4.82;;;;;;;2.82;100.00;95368.41;5075820;28;20024;-83
2023/12/28 03:48:04;;;;;;;7.35;4.07;;;;;;;2.94;100.00;95360.88;5075189;28;20034;-83
2023/12/28 03:50:30;;;;;;;14.90;4.75;;;;;;;3.07;100.00;95354.94;5075605;28;20024;-83
2023/12/28 03:52:55;;;;;;;10.40;4.50;;;;;;;3.12;100.00;95352.56;5075312;28;20028;-83
2023/12/28 03:55:21;;;;;;;9.73;4.43;;;;;;;2.94;100.00;95351.31;5084562;28;20028;-83
2023/12/28 03:57:47;;;;;;;8.43;3.85;;;;;;;2.94;100.00;95355.69;5086231;28;20027;-83
2023/12/28 04:00:14;;;;;;;10.52;3.83;;;;;;;3.04;100.00;95353.53;5085428;28;20024;-83
2023/12/28 04:02:40;;;;;;;8.10;3.42;;;;;;;2.97;100.00;95355.31;5069768;28;20426;-84
2023/12/28 04:05:07;;;;;;;8.90;4.10;;;;;;;2.87;100.00;95355.69;5073223;28;20031;-84
2023/12/28 04:07:32;;;;;;;8.82;4.10;;;;;;;2.80;100.00;95349.69;5093649;28;20028;-83
2023/12/28 04:09:58;;;;;;;9.95;4.43;;;;;;;2.81;100.00;95346.91;5095357;28;20445;-84
2023/12/28 04:12:24;;;;;;;6.43;3.67;;;;;;;3.02;100.00;95340.00;5095494;28;20020;-83
2023/12/28 04:14:49;;;;;;;11.55;4.78;;;;;;;3.04;100.00;95340.59;5096477;28;20024;-83
2023/12/28 04:17:14;;;;;;;8.77;4.18;;;;;;;3.09;100.00;95343.41;5074152;28;20039;-83
2023/12/28 04:19:40;;;;;;;10.93;3.47;;;;;;;2.78;100.00;95339.50;5071351;28;20109;-84
2023/12/28 04:22:05;;;;;;;9.82;3.45;;;;;;;2.47;100.00;95342.59;5075080;28;20134;-83
2023/12/28 04:24:31;;;;;;;10.77;3.95;;;;;;;2.34;100.00;95346.69;5075284;28;20043;-83
2023/12/28 04:26:56;;;;;;;6.57;4.05;;;;;;;2.51;100.00;95354.13;5074958;28;20028;-83
2023/12/28 04:29:22;;;;;;;9.88;3.95;;;;;;;2.52;100.00;95351.38;5085358;28;20032;-83
2023/12/28 04:31:47;;;;;;;8.63;4.60;;;;;;;2.56;100.00;95358.75;5095058;28;20038;-84
2023/12/28 04:34:12;;;;;;;9.18;4.25;;;;;;;2.78;100.00;95362.03;5096404;28;20021;-84
2023/12/28 04:36:46;;;;;;;7.80;4.25;;;;;;;2.82;100.00;95352.88;5095176;28;20024;-83
2023/12/28 04:39:12;;;;;;;6.53;3.70;;;;;;;2.84;100.00;95356.06;5081711;28;20028;-83
2023/12/28 04:41:37;;;;;;;11.35;4.30;;;;;;;2.76;100.00;95356.25;5074901;28;20031;-83
2023/12/28 04:44:03;;;;;;;10.98;4.40;;;;;;;2.92;100.00;95361.09;5077099;28;20074;-83
2023/12/28 04:46:28;;;;;;;9.25;3.80;;;;;;;2.99;100.00;95360.28;5078573;28;20031;-83
2023/12/28 04:48:54;;;;;;;9.23;3.95;;;;;;;2.93;100.00;95364.44;5085262;28;20038;-83
2023/12/28 04:51:19;;;;;;;10.73;4.20;;;;;;;2.98;100.00;95364.69;5099037;28;20039;-83
2023/12/28 04:53:45;;;;;;;9.70;4.72;;;;;;;3.03;100.00;95361.53;5098713;28;20031;-83
2023/12/28 04:56:10;;;;;;;11.15;4.22;;;;;;;3.15;100.00;95354.75;5099017;28;20024;-84
2023/12/28 04:58:35;;;;;;;8.07;4.18;;;;;;;3.05;100.00;95356.94;5098834;28;20111;-83
2023/12/28 05:01:02;;;;;;;6.82;4.03;;;;;;;3.04;100.00;95357.94;5098698;28;20080;-83
2023/12/28 05:03:28;;;;;;;6.07;3.67;;;;;;;2.99;100.00;95353.34;5098789;28;20016;-83
2023/12/28 05:05:53;;;;;;;8.85;3.90;;;;;;;2.97;100.00;95363.09;5098717;28;20387;-83
2023/12/28 05:08:18;;;;;;;7.97;3.75;;;;;;;3.04;100.00;95360.53;5098402;28;20024;-83
2023/12/28 05:10:44;;;;;;;7.28;3.38;;;;;;;3.28;100.00;95361.78;5090097;28;20046;-83
2023/12/28 05:13:09;;;;;;;11.20;3.38;;;;;;;3.06;100.00;95363.72;5098438;28;20498;-83
2023/12/28 05:15:35;;;;;;;6.35;3.45;;;;;;;3.17;100.00;95363.16;5098321;28;20042;-83
2023/12/28 05:18:00;;;;;;;6.25;3.42;;;;;;;3.14;100.00;95354.97;5098206;28;20068;-83
2023/12/28 05:20:25;;;;;;;7.20;3.25;;;;;;;2.96;100.00;95370.06;5098448;28;20045;-83
2023/12/28 05:22:51;;;;;;;6.97;3.05;;;;;;;2.96;100.00;95364.09;5079294;28;20020;-83
2023/12/28 05:25:16;;;;;;;6.53;3.15;;;;;;;2.85;100.00;95373.19;5079167;28;20017;-83
2023/12/28 05:27:42;;;;;;;5.25;2.95;;;;;;;3.11;100.00;95371.69;5061377;28;20042;-83
2023/12/28 05:30:08;;;;;;;8.27;3.75;;;;;;;2.97;100.00;95358.69;5078285;28;20337;-83
2023/12/28 05:32:35;;;;;;;9.52;3.40;;;;;;;2.91;100.00;95353.50;5061404;28;20024;-83
2023/12/28 05:35:00;;;;;;;10.15;3.22;;;;;;;3.04;100.00;95356.13;5061301;28;20431;-83
2023/12/28 05:37:25;;;;;;;6.72;3.25;;;;;;;3.03;100.00;95356.34;5077948;28;20032;-83
2023/12/28 05:39:51;;;;;;;8.43;3.28;;;;;;;3.00;100.00;95354.94;5092999;28;20028;-83
2023/12/28 05:42:17;;;;;;;7.05;3.22;;;;;;;3.00;100.00;95349.75;5089715;28;20032;-83
2023/12/28 05:44:42;;;;;;;6.72;3.10;;;;;;;3.11;100.00;95350.97;5097672;28;20333;-83
2023/12/28 05:47:08;;;;;;;4.78;3.00;;;;;;;3.30;100.00;95351.19;5097668;28;20449;-83
2023/12/28 05:49:33;;;;;;;8.30;2.70;;;;;;;3.34;100.00;95342.84;5094566;28;20039;-83
2023/12/28 05:51:59;;;;;;;6.25;3.20;;;;;;;3.18;100.00;95344.03;5089064;28;20027;-83
2023/12/28 05:54:27;;;;;;;5.70;2.83;;;;;;;3.14;100.00;95342.03;5081880;28;20090;-83
2023/12/28 05:56:52;;;;;;;10.40;4.35;;;;;;;3.04;100.00;95340.59;5088325;28;20027;-84
2023/12/28 05:59:18;;;;;;;7.43;3.20;;;;;;;3.03;100.00;95345.97;5096496;28;20020;-84
2023/12/28 06:01:44;;;;;;;8.75;3.40;;;;;;;3.12;100.00;95352.56;5075233;28;20460;-83
2023/12/28 06:04:09;;;;;;;9.15;2.97;;;;;;;2.96;100.00;95349.34;5094546;28;20027;-83
2023/12/28 06:06:36;;;;;;;9.38;2.92;;;;;;;2.90;100.00;95346.72;5097414;28;20028;-83
2023/12/28 06:09:03;;;;;;;9.77;3.70;;;;;;;2.75;100.00;95349.47;5080732;28;20028;-83
2023/12/28 06:11:28;;;;;;;10.75;3.58;;;;;;;2.87;100.00;95353.09;5097291;28;20064;-83
2023/12/28 06:13:54;;;;;;;7.78;3.45;;;;;;;2.67;100.00;95356.41;5077106;28;20450;-83
2023/12/28 06:16:19;;;;;;;6.05;2.85;;;;;;;2.63;100.00;95360.38;5076903;28;20024;-83
2023/12/28 06:18:44;;;;;;;5.03;3.38;;;;;;;2.64;100.00;95361.97;5076726;28;20353;-83
2023/12/28 06:21:10;;;;;;;6.88;3.30;;;;;;;2.60;100.00;95360.75;5076907;28;20026;-83
2023/12/28 06:23:35;;;;;;;6.63;3.67;;;;;;;2.71;100.00;95356.00;5060531;28;20024;-83
2023/12/28 06:26:06;;;;;;;8.48;3.30;;;;;;;2.58;100.00;95354.97;5060145;28;20032;-83
2023/12/28 06:28:32;;;;;;;7.10;3.58;;;;;;;2.64;100.00;95361.97;5060299;28;20021;-83
2023/12/28 06:31:00;;;;;;;8.27;3.40;;;;;;;2.59;100.00;95351.41;5076750;28;20074;-83
2023/12/28 06:33:26;;;;;;;5.18;3.08;;;;;;;2.76;100.00;95364.78;5068645;28;20039;-83
2023/12/28 06:35:53;;;;;;;8.15;3.42;;;;;;;2.88;100.00;95370.25;5076577;28;20361;-83
2023/12/28 06:38:18;;;;;;;15.48;3.58;;;;;;;2.90;100.00;95378.59;5060087;28;20069;-83
2023/12/28 06:40:43;;;;;;;7.97;3.80;;;;;;;2.68;100.00;95377.91;5059700;28;20032;-83
2023/12/28 06:43:09;;;;;;;8.43;3.40;;;;;;;2.74;100.00;95382.31;5076603;28;20036;-83
2023/12/28 06:45:34;;;;;;;11.77;3.55;;;;;;;2.69;100.00;95385.47;5070996;28;20565;-83
2023/12/28 06:48:00;;;;;;;8.00;3.80;;;;;;;2.82;100.00;95389.09;5083275;28;20025;-83
2023/12/28 06:50:25;;;;;;;6.13;3.60;;;;;;;2.72;100.00;95386.06;5096506;28;20020;-83
2023/12/28 06:52:50;;;;;;;7.95;3.58;;;;;;;2.67;100.00;95386.66;5096533;28;20374;-83
2023/12/28 06:55:16;;;;;;;9.60;3.63;;;;;;;2.69;100.00;95392.44;5075594;28;20024;-83
2023/12/28 06:57:41;;;;;;;10.25;3.92;;;;;;;2.64;100.00;95389.63;5082670;28;20023;-83
2023/12/28 07:00:07;;;;;;;6.32;3.45;;;;;;;2.81;100.00;95393.50;5096458;28;20031;-83
2023/12/28 07:02:33;;;;;;;7.10;3.72;;;;;;;2.89;100.00;95395.13;5096256;28;20031;-83
2023/12/28 07:04:58;;;;;;;8.30;4.10;;;;;;;2.83;100.00;95393.28;5089002;28;20021;-83
2023/12/28 07:07:23;;;;;;;7.60;4.30;;;;;;;2.76;100.00;95397.66;5095214;28;20023;-83
2023/12/28 07:09:49;;;;;;;8.48;4.35;;;;;;;3.09;100.00;95404.75;5097434;28;20024;-83
2023/12/28 07:12:14;;;;;;;7.18;3.67;;;;;;;3.18;100.00;95410.56;5096225;28;20108;-83
2023/12/28 07:14:40;;;;;;;8.75;4.00;;;;;;;3.23;100.00;95418.56;5095711;28;20047;-83
2023/12/28 07:17:06;;;;;;;8.70;4.70;;;;;;;3.18;100.00;95413.13;5066125;28;20036;-83
2023/12/28 07:19:31;;;;;;;9.90;4.70;;;;;;;3.23;100.00;95416.75;5096002;28;20020;-83
2023/12/28 07:21:57;;;;;;;7.05;4.03;;;;;;;3.24;100.00;95418.34;5096990;28;20024;-83
2023/12/28 07:24:23;;;;;;;10.13;4.10;;;;;;;3.51;100.00;95413.22;5096053;28;20020;-83
2023/12/28 07:26:50;;;;;;;8.27;4.07;;;;;;;3.73;100.00;95414.88;5094687;28;20028;-83
2023/12/28 07:29:15;;;;;;;7.03;4.22;;;;;;;3.90;100.00;95423.06;5083495;28;20055;-83
2023/12/28 07:31:41;;;;;;;9.93;4.60;;;;;;;3.97;100.00;95418.66;5097089;28;20058;-83
2023/12/28 07:34:06;;;;;;;6.72;3.58;;;;;;;4.09;100.00;95424.06;5077135;28;20024;-83
2023/12/28 07:36:32;;;;;;;7.32;3.30;;;;;;;4.07;100.00;95424.25;5083444;28;20311;-83
2023/12/28 07:38:57;;;;;;;6.90;3.03;;;;;;;4.21;100.00;95427.63;5076631;28;20024;-83
2023/12/28 07:41:24;;;;;;;5.45;2.55;;;;;;;4.34;100.00;95418.25;5075669;28;20024;-83
2023/12/28 07:43:49;;;;;;;6.88;2.88;;;;;;;4.47;100.00;95425.25;5075493;28;20032;-83
2023/12/28 07:46:15;;;;;;;6.22;2.78;;;;;;;4.48;100.00;95421.63;5088780;28;20043;-83
2023/12/28 07:48:41;;;;;;;6.80;2.63;;;;;;;4.42;100.00;95418.06;5079874;28;20032;-83
2023/12/28 07:51:06;;;;;;;11.10;2.80;;;;;;;4.23;100.00;95430.03;5075430;28;20400;-83
2023/12/28 07:53:32;;;;;;;9.60;3.47;;;;;;;4.37;100.00;95423.84;5089018;28;20036;-83
2023/12/28 07:55:58;;;;;;;6.90;3.08;;;;;;;4.67;100.00;95431.19;5078137;28;20032;-83
2023/12/28 07:58:23;;;;;;;6.47;2.88;;;;;;;4.77;100.00;95432.56;5080935;28;20028;-83
2023/12/28 08:00:49;;;;;;;5.78;2.88;;;;;;;4.88;100.00;95431.13;5075514;28;20032;-83
2023/12/28 08:03:15;;;;;;;9.52;2.80;;;;;;;5.01;100.00;95432.88;5076317;28;20035;-84
2023/12/28 08:05:41;;;;;;;10.13;2.50;;;;;;;5.19;100.00;95429.59;5083102;28;20028;-84
2023/12/28 08:08:07;;;;;;;5.65;3.15;;;;;;;5.32;100.00;95426.94;5087240;28;20039;-84
2023/12/28 08:10:33;;;;;;;6.57;3.00;;;;;;;5.43;100.00;95425.50;5094792;28;20349;-85
2023/12/28 08:12:58;;;;;;;4.47;2.70;;;;;;;5.31;100.00;95430.56;5075518;28;20032;-86
2023/12/28 08:15:23;;;;;;;9.77;3.30;;;;;;;5.40;100.00;95428.50;5088884;28;20042;-84
2023/12/28 08:17:49;;;;;;;4.57;2.53;;;;;;;5.50;100.00;95430.66;5078370;28;20128;-84
2023/12/28 08:20:14;;;;;;;10.02;2.67;;;;;;;5.55;100.00;95435.22;5099469;28;20110;-84
2023/12/28 08:22:40;;;;;;;5.65;3.00;;;;;;;5.67;100.00;95430.97;5100527;28;20032;-84
2023/12/28 08:25:06;;;;;;;7.95;2.83;;;;;;;5.73;100.00;95437.91;5078789;28;20041;-84
2023/12/28 08:27:31;;;;;;;5.13;2.85;;;;;;;5.80;100.00;95449.09;5062311;28;20055;-84
2023/12/28 08:29:57;;;;;;;9.25;2.97;;;;;;;5.83;100.00;95436.66;5080226;28;20032;-84
2023/12/28 08:32:22;;;;;;;4.20;2.38;;;;;;;5.82;100.00;95442.88;5062349;28;20118;-84
2023/12/28 08:34:49;;;;;;;8.52;2.83;;;;;;;5.72;100.00;95433.72;5085151;28;20059;-84
2023/12/28 08:37:14;;;;;;;5.13;2.90;;;;;;;5.76;100.00;95434.13;5099997;28;20024;-84
2023/12/28 08:39:40;;;;;;;7.35;3.08;;;;;;;5.87;100.00;95441.25;5099129;28;20035;-84
2023/12/28 08:42:05;;;;;;;6.32;3.10;;;;;;;5.84;100.00;95446.06;5100261;28;20056;-85
2023/12/28 08:44:31;;;;;;;5.45;3.00;;;;;;;5.88;100.00;95444.63;5087694;28;20032;-84
2023/12/28 08:46:56;;;;;;;5.75;2.80;;;;;;;6.04;100.00;95436.38;5079524;28;20441;-84
2023/12/28 08:49:22;;;;;;;8.63;2.83;;;;;;;6.03;100.00;95445.19;5078658;28;20032;-84
2023/12/28 08:51:47;;;;;;;4.97;2.90;;;;;;;6.03;100.00;95445.19;5078610;28;20028;-84
2023/12/28 08:54:14;;;;;;;6.25;2.50;;;;;;;6.07;100.00;95446.34;5079522;28;20323;-84
2023/12/28 08:56:39;;;;;;;6.50;3.05;;;;;;;6.05;100.00;95445.75;5078520;28;20459;-83
2023/12/28 08:59:05;;;;;;;6.25;3.17;;;;;;;6.20;100.00;95449.84;5078598;28;20134;-85
2023/12/28 09:01:30;;;;;;;6.63;2.97;;;;;;;6.24;100.00;95445.81;5078379;28;20426;-84
2023/12/28 09:03:56;;;;;;;11.48;5.10;;;;;;;6.29;100.00;95451.16;5096180;28;20025;-84
2023/12/28 09:06:22;;;;;;;3.90;2.72;;;;;;;6.29;100.00;95451.16;5081675;28;20035;-84
2023/12/28 09:08:50;;;;;;;7.38;3.10;;;;;;;6.36;100.00;95459.72;5098128;28;20031;-84
2023/12/28 09:11:15;;;;;;;9.82;3.13;;;;;;;6.46;100.00;95458.47;5099652;28;20038;-85
2023/12/28 09:13:41;;;;;;;5.82;2.40;;;;;;;6.43;100.00;95456.25;5099558;28;20115;-84
2023/12/28 09:16:14;;;;;;;4.18;2.05;;;;;;;6.53;100.00;95458.38;5098430;28;20029;-84
2023/12/28 09:18:40;;;;;;;5.20;2.40;;;;;;;6.68;100.00;95458.06;5098038;28;20319;-84
2023/12/28 09:21:07;;;;;;;5.30;2.22;;;;;;;6.71;100.00;95447.19;5098249;28;20077;-84
2023/12/28 09:23:33;;;;;;;6.32;2.15;;;;;;;6.71;100.00;95448.00;5081688;28;20035;-84
2023/12/28 09:26:05;;;;;;;4.72;2.50;;;;;;;6.74;100.00;95450.16;5099141;28;20093;-84
2023/12/28 09:28:31;;;;;;;7.32;2.72;;;;;;;6.79;100.00;95447.72;5098243;28;20050;-84
2023/12/28 09:30:57;;;;;;;6.13;2.33;;;;;;;6.89;100.00;95449.03;5096971;28;20119;-84
2023/12/28 09:33:22;;;;;;;5.32;2.47;;;;;;;6.91;100.00;95455.63;5097972;28;20420;-85
2023/12/28 09:35:48;;;;;;;7.65;2.78;;;;;;;6.99;100.00;95449.31;5098036;28;20345;-85
2023/12/28 09:38:14;;;;;;;5.22;2.80;;;;;;;6.96;100.00;95449.75;5081340;28;20080;-84
2023/12/28 09:40:43;;;;;;;6.38;2.50;;;;;;;7.03;100.00;95445.25;5098036;28;20028;-84
2023/12/28 09:43:36;;;;;;;7.32;3.47;;;;;;;7.05;100.00;95450.25;5093743;28;20032;-84
2023/12/28 09:46:05;;;;;;;;;;;;;;;7.16;100.00;95446.13;5074037;28;20081;-84
2023/12/28 09:48:32;;;;;;;4.50;2.30;;;;;;;7.29;100.00;95445.16;5097571;28;19912;-84
2023/12/28 09:50:57;;;;;;;5.25;2.22;;;;;;;7.39;100.00;95437.63;5097805;28;20456;-84
2023/12/28 09:53:26;;;;;;;8.35;2.30;;;;;;;7.51;100.00;95440.28;5097722;28;20055;-85
2023/12/28 09:55:52;;;;;;;5.78;2.28;;;;;;;7.56;100.00;95440.41;5097501;28;20034;-84
2023/12/28 09:58:19;;;;;;;3.83;2.03;;;;;;;7.62;100.00;95438.75;5098317;28;20031;-83
2023/12/28 10:00:45;;;;;;;7.03;2.85;;;;;;;7.62;100.00;95436.13;5097548;28;20020;-84
2023/12/28 10:03:12;;;;;;;6.72;2.63;;;;;;;7.61;100.00;95429.34;5097585;28;20024;-83
2023/12/28 10:05:41;;;;;;;10.20;2.42;;;;;;;7.67;100.00;95431.03;5092658;28;20021;-83
2023/12/28 10:08:07;;;;;;;5.50;2.20;;;;;;;7.79;100.00;95425.84;5086431;28;20028;-83
2023/12/28 10:10:33;;;;;;;3.60;2.15;;;;;;;7.80;100.00;95413.63;5077213;28;20328;-83
2023/12/28 10:12:58;;;;;;;6.22;2.53;;;;;;;7.78;100.00;95403.38;5077111;28;20024;-84
2023/12/28 10:15:25;;;;;;;6.60;3.03;;;;;;;7.90;100.00;95388.56;5081001;28;20103;-84
2023/12/28 10:17:52;;;;;;;4.25;2.22;;;;;;;8.04;100.00;95386.53;5082351;28;20024;-84
2023/12/28 10:20:17;;;;;;;7.55;2.47;;;;;;;8.13;100.00;95388.81;5060399;28;20028;-84
2023/12/28 10:22:43;;;;;;;6.28;2.20;;;;;;;8.22;100.00;95397.91;5060520;28;20319;-83
2023/12/28 10:25:09;;;;;;;3.72;2.22;;;;;;;8.26;100.00;95393.03;5080574;28;20024;-83
2023/12/28 10:27:39;;;;;;;5.63;1.88;;;;;;;8.30;100.00;95394.16;5080357;28;20028;-83
2023/12/28 10:30:05;;;;;;;7.05;1.92;;;;;;;8.45;100.00;95388.47;5097145;28;20341;-83
2023/12/28 10:32:30;;;;;;;4.03;1.90;;;;;;;8.49;100.00;95389.63;5095636;28;20114;-83
2023/12/28 10:34:56;;;;;;;2.92;1.80;;;;;;;8.57;100.00;95384.06;5079658;28;20028;-83
2023/12/28 10:37:23;;;;;;;9.65;2.22;;;;;;;8.78;100.00;95387.13;5079732;28;20072;-84
2023/12/28 10:39:51;;;;;;;7.70;2.35;;;;;;;8.89;100.00;95380.25;5096777;28;20490;-83
2023/12/28 10:42:28;;;;;;;7.90;1.80;;;;;;;9.01;100.00;95380.22;5072650;28;20097;-84
2023/12/28 10:44:56;;;;;;;5.43;2.28;;;;;;;9.16;100.00;95379.75;5076211;28;20024;-83
2023/12/28 10:47:22;;;;;;;5.22;1.80;;;;;;;9.20;100.00;95380.84;5093174;28;20034;-83
2023/12/28 10:49:48;;;;;;;13.90;2.67;;;;;;;9.22;100.00;95378.78;5089632;28;20032;-83
2023/12/28 10:52:16;;;;;;;9.90;1.98;;;;;;;9.23;100.00;95382.22;5088292;28;20039;-84
2023/12/28 10:54:47;;;;;;;5.47;2.17;;;;;;;9.26;100.00;95374.72;5059771;28;20040;-84
2023/12/28 10:57:37;;;;;;;7.90;2.65;;;;;;;9.41;100.00;95376.78;5076340;28;20016;-83
2023/12/28 11:00:17;;;;;;;7.30;2.17;;;;;;;9.46;100.00;95373.47;5060226;28;20036;-83
2023/12/28 11:02:45;;;;;;;8.50;1.92;;;;;;;9.56;100.00;95378.09;5096409;28;20024;-83
2023/12/28 11:05:12;;;;;;;3.85;1.88;;;;;;;9.54;100.00;95370.50;5087394;28;20329;-82
2023/12/28 11:07:39;;;;;;;3.80;1.88;;;;;;;9.60;100.00;95368.72;5071105;28;20032;-83
2023/12/28 11:10:06;;;;;;;5.20;1.52;;;;;;;9.76;100.00;95362.75;5067050;28;20090;-84
2023/12/28 11:12:33;;;;;;;4.40;1.98;;;;;;;9.90;100.00;95365.06;5091545;28;20418;-84
2023/12/28 11:14:59;;;;;;;7.30;1.90;;;;;;;9.87;100.00;95362.88;5064205;28;20123;-85
2023/12/28 11:17:25;;;;;;;3.17;1.67;;;;;;;9.94;100.00;95358.31;5092574;28;20082;-84
2023/12/28 11:19:53;;;;;;;4.75;1.73;;;;;;;9.93;100.00;95359.34;5073674;28;20023;-85
2023/12/28 11:22:19;;;;;;;5.43;2.22;;;;;;;9.93;100.00;95350.69;5082468;28;20059;-85
2023/12/28 11:24:45;;;;;;;6.60;1.80;;;;;;;10.01;100.00;95345.06;5084609;28;20024;-84
2023/12/28 11:27:11;;;;;;;5.95;2.50;;;;;;;10.05;100.00;95351.38;5088871;28;20499;-84